sensor_id;sensor_type;location;lat;lon;timestamp;temperature;humidity
11497;DHT22;5805;51.542;7.230;2022-08-21T00:01:49;21.10;99.90
11497;DHT22;5805;51.542;7.230;2022-08-21T00:04:15;21.10;99.90
11497;DHT22;5805;51.542;7.230;2022-08-21T00:06:41;21.10;99.90
11497;DHT22;5805;51.542;7.230;2022-08-21T00:09:08;21.10;99.90
11497;DHT22;5805;51.542;7.230;2022-08-21T00:11:36;21.10;99.90
11497;DHT22;5805;51.542;7.230;2022-08-21T00:14:03;21.10;99.90
11497;DHT22;5805;51.542;7.230;2022-08-21T00:16:29;21.10;99.90
11497;DHT22;5805;51.542;7.230;2022-08-21T00:18:55;21.00;99.90
11497;DHT22;5805;51.542;7.230;2022-08-21T00:21:21;21.00;99.90
11497;DHT22;5805;51.542;7.230;2022-08-21T00:23:46;20.90;99.90
11497;DHT22;5805;51.542;7.230;2022-08-21T00:26:12;20.90;99.90
11497;DHT22;5805;51.542;7.230;2022-08-21T00:28:39;20.80;99.90
11497;DHT22;5805;51.542;7.230;2022-08-21T00:31:05;20.70;99.90
11497;DHT22;5805;51.542;7.230;2022-08-21T00:33:32;20.70;99.90
11497;DHT22;5805;51.542;7.230;2022-08-21T00:35:57;20.70;99.90
11497;DHT22;5805;51.542;7.230;2022-08-21T00:38:23;20.60;99.90
11497;DHT22;5805;51.542;7.230;2022-08-21T00:40:51;20.60;99.90
11497;DHT22;5805;51.542;7.230;2022-08-21T00:43:21;20.60;99.90
11497;DHT22;5805;51.542;7.230;2022-08-21T00:45:48;20.50;99.90
11497;DHT22;5805;51.542;7.230;2022-08-21T00:48:14;20.50;99.90
11497;DHT22;5805;51.542;7.230;2022-08-21T00:50:43;20.50;99.90
11497;DHT22;5805;51.542;7.230;2022-08-21T00:53:10;20.40;99.90
11497;DHT22;5805;51.542;7.230;2022-08-21T00:55:37;20.40;99.90
11497;DHT22;5805;51.542;7.230;2022-08-21T00:58:05;20.40;99.90
11497;DHT22;5805;51.542;7.230;2022-08-21T01:00:34;20.40;99.90
11497;DHT22;5805;51.542;7.230;2022-08-21T01:03:07;20.40;99.90
11497;DHT22;5805;51.542;7.230;2022-08-21T01:05:33;20.50;99.90
11497;DHT22;5805;51.542;7.230;2022-08-21T01:07:59;20.50;99.90
11497;DHT22;5805;51.542;7.230;2022-08-21T01:10:25;20.60;99.90
11497;DHT22;5805;51.542;7.230;2022-08-21T01:12:52;20.60;99.90
11497;DHT22;5805;51.542;7.230;2022-08-21T01:15:19;20.60;99.90
11497;DHT22;5805;51.542;7.230;2022-08-21T01:17:46;20.70;99.90
11497;DHT22;5805;51.542;7.230;2022-08-21T01:20:14;20.70;99.90
11497;DHT22;5805;51.542;7.230;2022-08-21T01:22:41;20.60;99.90
11497;DHT22;5805;51.542;7.230;2022-08-21T01:25:08;20.60;99.90
11497;DHT22;5805;51.542;7.230;2022-08-21T01:27:34;20.60;99.90
11497;DHT22;5805;51.542;7.230;2022-08-21T01:30:04;20.60;99.90
11497;DHT22;5805;51.542;7.230;2022-08-21T01:32:32;20.60;99.90
11497;DHT22;5805;51.542;7.230;2022-08-21T01:34:58;20.60;99.90
11497;DHT22;5805;51.542;7.230;2022-08-21T01:37:24;20.50;99.90
11497;DHT22;5805;51.542;7.230;2022-08-21T01:39:51;20.40;99.90
11497;DHT22;5805;51.542;7.230;2022-08-21T01:42:17;20.40;99.90
11497;DHT22;5805;51.542;7.230;2022-08-21T01:44:43;20.30;99.90
11497;DHT22;5805;51.542;7.230;2022-08-21T01:47:11;20.20;99.90
11497;DHT22;5805;51.542;7.230;2022-08-21T01:49:39;20.30;99.90
11497;DHT22;5805;51.542;7.230;2022-08-21T01:52:06;20.20;99.90
11497;DHT22;5805;51.542;7.230;2022-08-21T01:54:32;20.10;99.90
11497;DHT22;5805;51.542;7.230;2022-08-21T01:57:01;20.10;99.90
11497;DHT22;5805;51.542;7.230;2022-08-21T01:59:27;20.10;99.90
11497;DHT22;5805;51.542;7.230;2022-08-21T02:01:53;20.00;99.90
11497;DHT22;5805;51.542;7.230;2022-08-21T02:04:19;20.00;99.90
11497;DHT22;5805;51.542;7.230;2022-08-21T02:06:45;19.90;99.90
11497;DHT22;5805;51.542;7.230;2022-08-21T02:09:11;19.90;99.90
11497;DHT22;5805;51.542;7.230;2022-08-21T02:11:37;19.80;99.90
11497;DHT22;5805;51.542;7.230;2022-08-21T02:14:04;19.80;99.90
11497;DHT22;5805;51.542;7.230;2022-08-21T02:16:30;19.70;99.90
11497;DHT22;5805;51.542;7.230;2022-08-21T02:18:56;19.60;99.90
11497;DHT22;5805;51.542;7.230;2022-08-21T02:21:21;19.60;99.90
11497;DHT22;5805;51.542;7.230;2022-08-21T02:23:47;19.60;99.90
11497;DHT22;5805;51.542;7.230;2022-08-21T02:26:13;19.50;99.90
11497;DHT22;5805;51.542;7.230;2022-08-21T02:28:38;19.50;99.90
11497;DHT22;5805;51.542;7.230;2022-08-21T02:31:06;19.50;99.90
11497;DHT22;5805;51.542;7.230;2022-08-21T02:33:32;19.50;99.90
11497;DHT22;5805;51.542;7.230;2022-08-21T02:35:58;19.50;99.90
11497;DHT22;5805;51.542;7.230;2022-08-21T02:38:26;19.50;99.90
11497;DHT22;5805;51.542;7.230;2022-08-21T02:40:52;19.50;99.90
11497;DHT22;5805;51.542;7.230;2022-08-21T02:43:19;19.40;99.90
11497;DHT22;5805;51.542;7.230;2022-08-21T02:45:46;19.40;99.90
11497;DHT22;5805;51.542;7.230;2022-08-21T02:48:16;19.30;99.90
11497;DHT22;5805;51.542;7.230;2022-08-21T02:50:44;19.30;99.90
11497;DHT22;5805;51.542;7.230;2022-08-21T02:53:12;19.20;99.90
11497;DHT22;5805;51.542;7.230;2022-08-21T02:55:38;19.20;99.90
11497;DHT22;5805;51.542;7.230;2022-08-21T02:58:04;19.10;99.90
11497;DHT22;5805;51.542;7.230;2022-08-21T03:00:31;19.10;99.90
11497;DHT22;5805;51.542;7.230;2022-08-21T03:02:58;19.10;99.90
11497;DHT22;5805;51.542;7.230;2022-08-21T03:05:28;19.10;99.90
11497;DHT22;5805;51.542;7.230;2022-08-21T03:07:54;19.10;99.90
11497;DHT22;5805;51.542;7.230;2022-08-21T03:10:21;19.00;99.90
11497;DHT22;5805;51.542;7.230;2022-08-21T03:12:48;19.00;99.90
11497;DHT22;5805;51.542;7.230;2022-08-21T03:15:17;19.00;99.90
11497;DHT22;5805;51.542;7.230;2022-08-21T03:17:43;19.00;99.90
11497;DHT22;5805;51.542;7.230;2022-08-21T03:20:10;18.90;99.90
11497;DHT22;5805;51.542;7.230;2022-08-21T03:22:37;18.90;99.90
11497;DHT22;5805;51.542;7.230;2022-08-21T03:25:03;18.90;99.90
11497;DHT22;5805;51.542;7.230;2022-08-21T03:27:29;18.90;99.90
11497;DHT22;5805;51.542;7.230;2022-08-21T03:29:55;18.90;99.90
11497;DHT22;5805;51.542;7.230;2022-08-21T03:32:21;18.80;99.90
11497;DHT22;5805;51.542;7.230;2022-08-21T03:34:47;18.70;99.90
11497;DHT22;5805;51.542;7.230;2022-08-21T03:37:14;18.70;99.90
11497;DHT22;5805;51.542;7.230;2022-08-21T03:39:42;19.10;99.90
11497;DHT22;5805;51.542;7.230;2022-08-21T03:42:07;18.70;99.90
11497;DHT22;5805;51.542;7.230;2022-08-21T03:44:33;18.70;99.90
11497;DHT22;5805;51.542;7.230;2022-08-21T03:46:59;18.70;99.90
11497;DHT22;5805;51.542;7.230;2022-08-21T03:49:26;18.70;99.90
11497;DHT22;5805;51.542;7.230;2022-08-21T03:51:51;18.70;99.90
11497;DHT22;5805;51.542;7.230;2022-08-21T03:54:17;18.60;99.90
11497;DHT22;5805;51.542;7.230;2022-08-21T03:56:44;18.60;99.90
11497;DHT22;5805;51.542;7.230;2022-08-21T03:59:10;18.60;99.90
11497;DHT22;5805;51.542;7.230;2022-08-21T04:01:36;18.60;99.90
11497;DHT22;5805;51.542;7.230;2022-08-21T04:04:02;18.60;99.90
11497;DHT22;5805;51.542;7.230;2022-08-21T04:06:29;18.50;99.90
11497;DHT22;5805;51.542;7.230;2022-08-21T04:08:54;18.60;99.90
11497;DHT22;5805;51.542;7.230;2022-08-21T04:11:20;18.40;99.90
11497;DHT22;5805;51.542;7.230;2022-08-21T04:13:47;18.50;99.90
11497;DHT22;5805;51.542;7.230;2022-08-21T04:16:14;18.40;99.90
11497;DHT22;5805;51.542;7.230;2022-08-21T04:18:40;18.50;99.90
11497;DHT22;5805;51.542;7.230;2022-08-21T04:21:07;18.50;99.90
11497;DHT22;5805;51.542;7.230;2022-08-21T04:23:34;18.50;99.90
11497;DHT22;5805;51.542;7.230;2022-08-21T04:26:00;18.40;99.90
11497;DHT22;5805;51.542;7.230;2022-08-21T04:28:27;18.40;99.90
11497;DHT22;5805;51.542;7.230;2022-08-21T04:30:54;18.40;99.90
11497;DHT22;5805;51.542;7.230;2022-08-21T04:33:21;18.30;99.90
11497;DHT22;5805;51.542;7.230;2022-08-21T04:35:47;18.30;99.90
11497;DHT22;5805;51.542;7.230;2022-08-21T04:38:13;18.40;99.90
11497;DHT22;5805;51.542;7.230;2022-08-21T04:40:38;18.40;99.90
11497;DHT22;5805;51.542;7.230;2022-08-21T04:43:06;18.40;99.90
11497;DHT22;5805;51.542;7.230;2022-08-21T04:45:34;18.50;99.90
11497;DHT22;5805;51.542;7.230;2022-08-21T04:48:04;18.50;99.90
11497;DHT22;5805;51.542;7.230;2022-08-21T04:50:35;18.50;99.90
11497;DHT22;5805;51.542;7.230;2022-08-21T04:53:01;18.40;99.90
11497;DHT22;5805;51.542;7.230;2022-08-21T04:55:27;18.50;99.90
11497;DHT22;5805;51.542;7.230;2022-08-21T04:57:54;18.50;99.90
11497;DHT22;5805;51.542;7.230;2022-08-21T05:00:21;18.40;99.90
11497;DHT22;5805;51.542;7.230;2022-08-21T05:02:47;18.50;99.90
11497;DHT22;5805;51.542;7.230;2022-08-21T05:05:16;18.50;99.90
11497;DHT22;5805;51.542;7.230;2022-08-21T05:07:43;18.50;99.90
11497;DHT22;5805;51.542;7.230;2022-08-21T05:10:10;18.60;99.90
11497;DHT22;5805;51.542;7.230;2022-08-21T05:12:36;18.60;99.90
11497;DHT22;5805;51.542;7.230;2022-08-21T05:15:02;18.70;99.90
11497;DHT22;5805;51.542;7.230;2022-08-21T05:17:28;18.80;99.90
11497;DHT22;5805;51.542;7.230;2022-08-21T05:19:54;18.80;99.90
11497;DHT22;5805;51.542;7.230;2022-08-21T05:22:22;18.80;99.90
11497;DHT22;5805;51.542;7.230;2022-08-21T05:24:47;18.80;99.90
11497;DHT22;5805;51.542;7.230;2022-08-21T05:27:13;18.90;99.90
11497;DHT22;5805;51.542;7.230;2022-08-21T05:29:39;18.90;99.90
11497;DHT22;5805;51.542;7.230;2022-08-21T05:32:08;19.10;99.90
11497;DHT22;5805;51.542;7.230;2022-08-21T05:34:34;19.20;99.90
11497;DHT22;5805;51.542;7.230;2022-08-21T05:37:00;19.40;99.90
11497;DHT22;5805;51.542;7.230;2022-08-21T05:39:27;19.40;99.90
11497;DHT22;5805;51.542;7.230;2022-08-21T05:41:52;19.50;99.90
11497;DHT22;5805;51.542;7.230;2022-08-21T05:44:18;19.50;99.90
11497;DHT22;5805;51.542;7.230;2022-08-21T05:46:44;19.50;99.90
11497;DHT22;5805;51.542;7.230;2022-08-21T05:49:10;19.50;99.90
11497;DHT22;5805;51.542;7.230;2022-08-21T05:51:36;19.50;99.90
11497;DHT22;5805;51.542;7.230;2022-08-21T05:54:02;19.60;99.90
11497;DHT22;5805;51.542;7.230;2022-08-21T05:56:29;19.70;99.90
11497;DHT22;5805;51.542;7.230;2022-08-21T05:58:56;19.70;99.90
11497;DHT22;5805;51.542;7.230;2022-08-21T06:01:21;19.70;99.90
11497;DHT22;5805;51.542;7.230;2022-08-21T06:03:47;19.70;99.90
11497;DHT22;5805;51.542;7.230;2022-08-21T06:06:13;19.80;99.90
11497;DHT22;5805;51.542;7.230;2022-08-21T06:08:38;19.90;99.90
11497;DHT22;5805;51.542;7.230;2022-08-21T06:11:05;19.90;99.90
11497;DHT22;5805;51.542;7.230;2022-08-21T06:13:33;19.90;99.90
11497;DHT22;5805;51.542;7.230;2022-08-21T06:16:04;19.90;99.90
11497;DHT22;5805;51.542;7.230;2022-08-21T06:18:30;20.00;99.90
11497;DHT22;5805;51.542;7.230;2022-08-21T06:20:56;20.00;99.90
11497;DHT22;5805;51.542;7.230;2022-08-21T06:23:21;20.00;99.90
11497;DHT22;5805;51.542;7.230;2022-08-21T06:25:47;20.10;99.90
11497;DHT22;5805;51.542;7.230;2022-08-21T06:28:13;20.10;99.90
11497;DHT22;5805;51.542;7.230;2022-08-21T06:30:40;20.20;99.90
11497;DHT22;5805;51.542;7.230;2022-08-21T06:33:06;20.20;99.90
11497;DHT22;5805;51.542;7.230;2022-08-21T06:35:32;20.30;99.90
11497;DHT22;5805;51.542;7.230;2022-08-21T06:37:58;20.30;99.90
11497;DHT22;5805;51.542;7.230;2022-08-21T06:40:24;20.50;99.90
11497;DHT22;5805;51.542;7.230;2022-08-21T06:42:50;20.60;99.90
11497;DHT22;5805;51.542;7.230;2022-08-21T06:45:15;20.70;99.90
11497;DHT22;5805;51.542;7.230;2022-08-21T06:47:42;20.70;99.90
11497;DHT22;5805;51.542;7.230;2022-08-21T06:50:09;20.70;99.90
11497;DHT22;5805;51.542;7.230;2022-08-21T06:52:35;20.80;99.90
11497;DHT22;5805;51.542;7.230;2022-08-21T06:55:01;20.80;99.90
11497;DHT22;5805;51.542;7.230;2022-08-21T06:57:27;20.90;99.90
11497;DHT22;5805;51.542;7.230;2022-08-21T06:59:52;21.00;99.90
11497;DHT22;5805;51.542;7.230;2022-08-21T07:02:18;21.10;99.90
11497;DHT22;5805;51.542;7.230;2022-08-21T07:04:45;21.10;99.90
11497;DHT22;5805;51.542;7.230;2022-08-21T07:07:11;21.20;99.90
11497;DHT22;5805;51.542;7.230;2022-08-21T07:09:36;21.30;99.90
11497;DHT22;5805;51.542;7.230;2022-08-21T07:12:03;21.30;99.90
11497;DHT22;5805;51.542;7.230;2022-08-21T07:14:28;21.30;99.90
11497;DHT22;5805;51.542;7.230;2022-08-21T07:16:54;21.40;99.90
11497;DHT22;5805;51.542;7.230;2022-08-21T07:19:20;21.40;99.90
11497;DHT22;5805;51.542;7.230;2022-08-21T07:21:47;21.40;99.90
11497;DHT22;5805;51.542;7.230;2022-08-21T07:24:16;21.50;99.90
11497;DHT22;5805;51.542;7.230;2022-08-21T07:26:42;21.50;99.90
11497;DHT22;5805;51.542;7.230;2022-08-21T07:29:08;21.60;99.90
11497;DHT22;5805;51.542;7.230;2022-08-21T07:31:33;21.60;99.90
11497;DHT22;5805;51.542;7.230;2022-08-21T07:33:59;21.70;99.90
11497;DHT22;5805;51.542;7.230;2022-08-21T07:36:25;21.70;99.90
11497;DHT22;5805;51.542;7.230;2022-08-21T07:38:52;21.70;99.90
11497;DHT22;5805;51.542;7.230;2022-08-21T07:41:20;21.80;99.90
11497;DHT22;5805;51.542;7.230;2022-08-21T07:43:46;21.80;99.90
11497;DHT22;5805;51.542;7.230;2022-08-21T07:46:13;21.80;99.90
11497;DHT22;5805;51.542;7.230;2022-08-21T07:48:39;21.80;99.90
11497;DHT22;5805;51.542;7.230;2022-08-21T07:51:07;21.80;99.90
11497;DHT22;5805;51.542;7.230;2022-08-21T07:53:33;21.80;99.90
11497;DHT22;5805;51.542;7.230;2022-08-21T07:56:00;21.80;99.90
11497;DHT22;5805;51.542;7.230;2022-08-21T07:58:26;21.80;99.90
11497;DHT22;5805;51.542;7.230;2022-08-21T08:00:52;21.90;99.90
11497;DHT22;5805;51.542;7.230;2022-08-21T08:03:17;21.90;99.90
11497;DHT22;5805;51.542;7.230;2022-08-21T08:05:43;21.90;99.90
11497;DHT22;5805;51.542;7.230;2022-08-21T08:08:09;21.90;99.90
11497;DHT22;5805;51.542;7.230;2022-08-21T08:10:35;22.00;99.90
11497;DHT22;5805;51.542;7.230;2022-08-21T08:13:02;22.20;99.90
11497;DHT22;5805;51.542;7.230;2022-08-21T08:15:28;22.30;99.90
11497;DHT22;5805;51.542;7.230;2022-08-21T08:17:54;22.40;99.90
11497;DHT22;5805;51.542;7.230;2022-08-21T08:20:21;22.60;99.90
11497;DHT22;5805;51.542;7.230;2022-08-21T08:22:47;22.80;99.90
11497;DHT22;5805;51.542;7.230;2022-08-21T08:25:14;23.00;99.90
11497;DHT22;5805;51.542;7.230;2022-08-21T08:27:40;23.30;99.10
11497;DHT22;5805;51.542;7.230;2022-08-21T08:30:10;23.50;98.30
11497;DHT22;5805;51.542;7.230;2022-08-21T08:32:37;23.70;96.90
11497;DHT22;5805;51.542;7.230;2022-08-21T08:35:03;24.00;96.70
11497;DHT22;5805;51.542;7.230;2022-08-21T08:37:29;24.20;95.70
11497;DHT22;5805;51.542;7.230;2022-08-21T08:39:54;24.40;95.10
11497;DHT22;5805;51.542;7.230;2022-08-21T08:42:24;24.60;94.20
11497;DHT22;5805;51.542;7.230;2022-08-21T08:44:57;24.80;93.20
11497;DHT22;5805;51.542;7.230;2022-08-21T08:47:25;25.00;92.20
11497;DHT22;5805;51.542;7.230;2022-08-21T08:49:55;25.20;91.40
11497;DHT22;5805;51.542;7.230;2022-08-21T08:52:27;25.30;90.60
11497;DHT22;5805;51.542;7.230;2022-08-21T08:55:02;25.50;90.10
11497;DHT22;5805;51.542;7.230;2022-08-21T08:57:29;25.60;89.20
11497;DHT22;5805;51.542;7.230;2022-08-21T08:59:58;25.90;88.70
11497;DHT22;5805;51.542;7.230;2022-08-21T09:02:25;26.00;85.90
11497;DHT22;5805;51.542;7.230;2022-08-21T09:04:51;26.10;84.90
11497;DHT22;5805;51.542;7.230;2022-08-21T09:07:23;26.20;84.00
11497;DHT22;5805;51.542;7.230;2022-08-21T09:10:04;26.30;82.40
11497;DHT22;5805;51.542;7.230;2022-08-21T09:12:37;26.40;80.90
11497;DHT22;5805;51.542;7.230;2022-08-21T09:15:11;26.50;81.50
11497;DHT22;5805;51.542;7.230;2022-08-21T09:17:49;26.60;80.10
11497;DHT22;5805;51.542;7.230;2022-08-21T09:20:21;26.80;78.60
11497;DHT22;5805;51.542;7.230;2022-08-21T09:22:59;26.90;77.40
11497;DHT22;5805;51.542;7.230;2022-08-21T09:25:33;27.00;75.50
11497;DHT22;5805;51.542;7.230;2022-08-21T09:27:59;27.10;72.70
11497;DHT22;5805;51.542;7.230;2022-08-21T09:30:28;27.00;71.90
11497;DHT22;5805;51.542;7.230;2022-08-21T09:32:55;27.00;71.40
11497;DHT22;5805;51.542;7.230;2022-08-21T09:35:23;26.90;71.00
11497;DHT22;5805;51.542;7.230;2022-08-21T09:37:53;26.90;71.00
11497;DHT22;5805;51.542;7.230;2022-08-21T09:40:29;26.80;70.30
11497;DHT22;5805;51.542;7.230;2022-08-21T09:42:57;26.70;70.50
11497;DHT22;5805;51.542;7.230;2022-08-21T09:45:23;26.60;70.30
11497;DHT22;5805;51.542;7.230;2022-08-21T09:47:49;26.60;70.20
11497;DHT22;5805;51.542;7.230;2022-08-21T09:50:19;26.60;70.70
11497;DHT22;5805;51.542;7.230;2022-08-21T09:52:48;26.80;71.20
11497;DHT22;5805;51.542;7.230;2022-08-21T09:55:18;27.00;71.30
11497;DHT22;5805;51.542;7.230;2022-08-21T09:57:45;27.30;70.40
11497;DHT22;5805;51.542;7.230;2022-08-21T10:00:18;27.60;68.30
11497;DHT22;5805;51.542;7.230;2022-08-21T10:02:44;27.70;66.20
11497;DHT22;5805;51.542;7.230;2022-08-21T10:05:19;27.80;65.70
11497;DHT22;5805;51.542;7.230;2022-08-21T10:07:45;27.90;63.80
11497;DHT22;5805;51.542;7.230;2022-08-21T10:10:16;28.10;63.50
11497;DHT22;5805;51.542;7.230;2022-08-21T10:12:48;28.20;62.50
11497;DHT22;5805;51.542;7.230;2022-08-21T10:15:20;28.30;62.50
11497;DHT22;5805;51.542;7.230;2022-08-21T10:17:54;28.40;62.20
11497;DHT22;5805;51.542;7.230;2022-08-21T10:20:30;28.60;61.60
11497;DHT22;5805;51.542;7.230;2022-08-21T10:23:07;28.70;60.10
11497;DHT22;5805;51.542;7.230;2022-08-21T10:25:40;28.80;59.70
11497;DHT22;5805;51.542;7.230;2022-08-21T10:28:12;28.80;59.40
11497;DHT22;5805;51.542;7.230;2022-08-21T10:30:46;28.90;58.70
11497;DHT22;5805;51.542;7.230;2022-08-21T10:33:28;28.90;56.80
11497;DHT22;5805;51.542;7.230;2022-08-21T10:36:03;29.00;56.70
11497;DHT22;5805;51.542;7.230;2022-08-21T10:38:58;29.10;56.30
11497;DHT22;5805;51.542;7.230;2022-08-21T10:41:35;29.10;55.80
11497;DHT22;5805;51.542;7.230;2022-08-21T10:44:11;29.20;56.10
11497;DHT22;5805;51.542;7.230;2022-08-21T10:46:47;29.20;54.90
11497;DHT22;5805;51.542;7.230;2022-08-21T10:49:23;29.10;54.80
11497;DHT22;5805;51.542;7.230;2022-08-21T10:52:03;29.10;55.10
11497;DHT22;5805;51.542;7.230;2022-08-21T10:54:38;29.20;54.60
11497;DHT22;5805;51.542;7.230;2022-08-21T10:57:11;29.20;54.30
11497;DHT22;5805;51.542;7.230;2022-08-21T10:59:47;29.20;54.50
11497;DHT22;5805;51.542;7.230;2022-08-21T11:02:18;29.20;54.50
11497;DHT22;5805;51.542;7.230;2022-08-21T11:04:53;29.20;55.00
11497;DHT22;5805;51.542;7.230;2022-08-21T11:07:28;29.30;54.70
11497;DHT22;5805;51.542;7.230;2022-08-21T11:09:57;29.30;54.40
11497;DHT22;5805;51.542;7.230;2022-08-21T11:12:28;29.30;53.60
11497;DHT22;5805;51.542;7.230;2022-08-21T11:14:59;29.30;53.60
11497;DHT22;5805;51.542;7.230;2022-08-21T11:17:31;29.20;53.30
11497;DHT22;5805;51.542;7.230;2022-08-21T11:20:04;29.10;53.20
11497;DHT22;5805;51.542;7.230;2022-08-21T11:22:38;29.10;53.30
11497;DHT22;5805;51.542;7.230;2022-08-21T11:25:09;29.10;53.10
11497;DHT22;5805;51.542;7.230;2022-08-21T11:27:40;29.00;54.00
11497;DHT22;5805;51.542;7.230;2022-08-21T11:30:08;28.90;53.50
11497;DHT22;5805;51.542;7.230;2022-08-21T11:32:52;28.70;53.00
11497;DHT22;5805;51.542;7.230;2022-08-21T11:35:30;28.50;52.90
11497;DHT22;5805;51.542;7.230;2022-08-21T11:38:07;28.40;54.00
11497;DHT22;5805;51.542;7.230;2022-08-21T11:40:51;28.40;53.70
11497;DHT22;5805;51.542;7.230;2022-08-21T11:43:28;28.40;54.00
11497;DHT22;5805;51.542;7.230;2022-08-21T11:46:10;28.40;54.00
11497;DHT22;5805;51.542;7.230;2022-08-21T11:48:42;28.50;53.60
11497;DHT22;5805;51.542;7.230;2022-08-21T11:51:13;28.50;53.50
11497;DHT22;5805;51.542;7.230;2022-08-21T11:53:48;28.50;53.60
11497;DHT22;5805;51.542;7.230;2022-08-21T11:56:17;28.50;53.50
11497;DHT22;5805;51.542;7.230;2022-08-21T11:58:46;28.40;53.60
11497;DHT22;5805;51.542;7.230;2022-08-21T12:01:17;28.40;53.80
11497;DHT22;5805;51.542;7.230;2022-08-21T12:03:52;28.30;53.60
11497;DHT22;5805;51.542;7.230;2022-08-21T12:06:29;28.30;54.10
11497;DHT22;5805;51.542;7.230;2022-08-21T12:08:59;28.30;54.20
11497;DHT22;5805;51.542;7.230;2022-08-21T12:11:26;28.30;54.00
11497;DHT22;5805;51.542;7.230;2022-08-21T12:13:55;28.30;54.40
11497;DHT22;5805;51.542;7.230;2022-08-21T12:16:30;28.50;54.70
11497;DHT22;5805;51.542;7.230;2022-08-21T12:19:03;28.60;54.00
11497;DHT22;5805;51.542;7.230;2022-08-21T12:21:29;28.70;54.00
11497;DHT22;5805;51.542;7.230;2022-08-21T12:24:04;28.60;53.70
11497;DHT22;5805;51.542;7.230;2022-08-21T12:26:32;28.60;53.50
11497;DHT22;5805;51.542;7.230;2022-08-21T12:29:13;28.60;53.70
11497;DHT22;5805;51.542;7.230;2022-08-21T12:31:58;28.60;53.70
11497;DHT22;5805;51.542;7.230;2022-08-21T12:34:31;28.70;54.20
11497;DHT22;5805;51.542;7.230;2022-08-21T12:37:01;28.60;54.10
11497;DHT22;5805;51.542;7.230;2022-08-21T12:39:31;28.60;54.50
11497;DHT22;5805;51.542;7.230;2022-08-21T12:42:00;28.60;53.90
11497;DHT22;5805;51.542;7.230;2022-08-21T12:44:35;28.60;54.00
11497;DHT22;5805;51.542;7.230;2022-08-21T12:47:04;28.70;54.20
11497;DHT22;5805;51.542;7.230;2022-08-21T12:49:34;28.70;53.90
11497;DHT22;5805;51.542;7.230;2022-08-21T12:52:04;28.60;53.90
11497;DHT22;5805;51.542;7.230;2022-08-21T12:54:39;28.60;54.30
11497;DHT22;5805;51.542;7.230;2022-08-21T12:57:06;28.60;53.60
11497;DHT22;5805;51.542;7.230;2022-08-21T12:59:37;28.60;53.60
11497;DHT22;5805;51.542;7.230;2022-08-21T13:02:07;28.60;53.90
11497;DHT22;5805;51.542;7.230;2022-08-21T13:04:40;28.60;54.00
11497;DHT22;5805;51.542;7.230;2022-08-21T13:07:08;28.60;53.20
11497;DHT22;5805;51.542;7.230;2022-08-21T13:09:36;28.50;52.80
11497;DHT22;5805;51.542;7.230;2022-08-21T13:12:07;28.50;52.40
11497;DHT22;5805;51.542;7.230;2022-08-21T13:14:36;28.50;52.50
11497;DHT22;5805;51.542;7.230;2022-08-21T13:17:04;28.50;52.50
11497;DHT22;5805;51.542;7.230;2022-08-21T13:19:31;28.50;52.10
11497;DHT22;5805;51.542;7.230;2022-08-21T13:21:57;28.50;51.10
11497;DHT22;5805;51.542;7.230;2022-08-21T13:24:26;28.30;51.60
11497;DHT22;5805;51.542;7.230;2022-08-21T13:26:53;28.20;51.30
11497;DHT22;5805;51.542;7.230;2022-08-21T13:29:22;28.20;50.70
11497;DHT22;5805;51.542;7.230;2022-08-21T13:31:50;28.20;51.60
11497;DHT22;5805;51.542;7.230;2022-08-21T13:34:17;28.20;51.90
11497;DHT22;5805;51.542;7.230;2022-08-21T13:36:44;28.20;50.70
11497;DHT22;5805;51.542;7.230;2022-08-21T13:39:12;28.10;50.30
11497;DHT22;5805;51.542;7.230;2022-08-21T13:41:43;28.10;51.10
11497;DHT22;5805;51.542;7.230;2022-08-21T13:44:17;28.10;51.20
11497;DHT22;5805;51.542;7.230;2022-08-21T13:46:43;28.10;51.50
11497;DHT22;5805;51.542;7.230;2022-08-21T13:49:09;28.10;51.60
11497;DHT22;5805;51.542;7.230;2022-08-21T13:51:36;28.00;51.70
11497;DHT22;5805;51.542;7.230;2022-08-21T13:54:14;27.90;51.50
11497;DHT22;5805;51.542;7.230;2022-08-21T13:56:42;27.80;51.20
11497;DHT22;5805;51.542;7.230;2022-08-21T13:59:08;27.70;51.90
11497;DHT22;5805;51.542;7.230;2022-08-21T14:01:37;27.70;52.00
11497;DHT22;5805;51.542;7.230;2022-08-21T14:04:07;27.50;52.00
11497;DHT22;5805;51.542;7.230;2022-08-21T14:06:38;27.40;52.40
11497;DHT22;5805;51.542;7.230;2022-08-21T14:09:09;27.40;52.70
11497;DHT22;5805;51.542;7.230;2022-08-21T14:11:35;27.40;52.60
11497;DHT22;5805;51.542;7.230;2022-08-21T14:14:04;27.50;53.00
11497;DHT22;5805;51.542;7.230;2022-08-21T14:16:45;27.60;53.30
11497;DHT22;5805;51.542;7.230;2022-08-21T14:19:18;27.50;52.70
11497;DHT22;5805;51.542;7.230;2022-08-21T14:21:44;27.50;53.30
11497;DHT22;5805;51.542;7.230;2022-08-21T14:24:13;27.50;54.30
11497;DHT22;5805;51.542;7.230;2022-08-21T14:26:46;27.50;53.80
11497;DHT22;5805;51.542;7.230;2022-08-21T14:29:14;27.40;53.50
11497;DHT22;5805;51.542;7.230;2022-08-21T14:31:41;27.30;53.60
11497;DHT22;5805;51.542;7.230;2022-08-21T14:34:07;27.30;54.00
11497;DHT22;5805;51.542;7.230;2022-08-21T14:36:33;27.30;54.60
11497;DHT22;5805;51.542;7.230;2022-08-21T14:38:58;27.30;54.60
11497;DHT22;5805;51.542;7.230;2022-08-21T14:41:25;27.30;54.90
11497;DHT22;5805;51.542;7.230;2022-08-21T14:43:53;27.30;54.90
11497;DHT22;5805;51.542;7.230;2022-08-21T14:46:23;27.30;55.00
11497;DHT22;5805;51.542;7.230;2022-08-21T14:48:51;27.20;55.10
11497;DHT22;5805;51.542;7.230;2022-08-21T14:51:17;27.20;55.30
11497;DHT22;5805;51.542;7.230;2022-08-21T14:53:43;27.20;55.30
11497;DHT22;5805;51.542;7.230;2022-08-21T14:56:09;27.20;55.50
11497;DHT22;5805;51.542;7.230;2022-08-21T14:58:37;27.20;55.60
11497;DHT22;5805;51.542;7.230;2022-08-21T15:01:04;27.10;55.80
11497;DHT22;5805;51.542;7.230;2022-08-21T15:03:31;27.20;56.30
11497;DHT22;5805;51.542;7.230;2022-08-21T15:05:59;27.20;56.20
11497;DHT22;5805;51.542;7.230;2022-08-21T15:08:25;27.20;56.10
11497;DHT22;5805;51.542;7.230;2022-08-21T15:10:51;27.30;56.30
11497;DHT22;5805;51.542;7.230;2022-08-21T15:13:17;27.30;56.20
11497;DHT22;5805;51.542;7.230;2022-08-21T15:15:45;27.30;56.40
11497;DHT22;5805;51.542;7.230;2022-08-21T15:18:12;27.30;56.50
11497;DHT22;5805;51.542;7.230;2022-08-21T15:20:38;27.30;56.80
11497;DHT22;5805;51.542;7.230;2022-08-21T15:23:06;27.40;56.60
11497;DHT22;5805;51.542;7.230;2022-08-21T15:25:32;27.50;56.80
11497;DHT22;5805;51.542;7.230;2022-08-21T15:27:58;27.50;56.80
11497;DHT22;5805;51.542;7.230;2022-08-21T15:30:24;27.50;56.80
11497;DHT22;5805;51.542;7.230;2022-08-21T15:32:50;27.60;56.80
11497;DHT22;5805;51.542;7.230;2022-08-21T15:35:16;27.60;56.80
11497;DHT22;5805;51.542;7.230;2022-08-21T15:37:41;27.50;56.00
11497;DHT22;5805;51.542;7.230;2022-08-21T15:40:10;27.50;56.40
11497;DHT22;5805;51.542;7.230;2022-08-21T15:42:37;27.60;56.50
11497;DHT22;5805;51.542;7.230;2022-08-21T15:45:03;27.60;56.50
11497;DHT22;5805;51.542;7.230;2022-08-21T15:47:32;27.50;56.30
11497;DHT22;5805;51.542;7.230;2022-08-21T15:49:57;27.40;55.80
11497;DHT22;5805;51.542;7.230;2022-08-21T15:52:23;27.30;56.10